Time;durP1;ratioP1;P1;durP2;ratioP2;P2;SDS_P1;SDS_P2;PMS_P1;PMS_P2;Temp;Humidity;BMP_temperature;BMP_pressure;BME280_temperature;BME280_humidity;BME280_pressure;Samples;Min_cycle;Max_cycle;Signal;HPM_P1;HPM_P2
2022/06/11 00:00:15;;;;;;;4.57;3.83;;;18.90;92.20;;;;;;6304089;28;20234;-62
2022/06/11 00:03:18;;;;;;;3.50;3.20;;;18.90;91.60;;;;;;6304139;28;20224;-62
2022/06/11 00:06:23;;;;;;;3.87;2.80;;;19.00;90.40;;;;;;6303207;28;20211;-62
2022/06/11 00:09:28;;;;;;;3.23;3.03;;;19.10;90.00;;;;;;6303790;28;20234;-62
2022/06/11 00:12:31;;;;;;;3.60;3.30;;;19.20;90.10;;;;;;6303301;28;20246;-62
2022/06/11 00:15:36;;;;;;;3.10;2.90;;;19.20;89.40;;;;;;6303972;28;20227;-62
2022/06/11 00:18:41;;;;;;;2.93;2.73;;;19.30;88.30;;;;;;6303258;28;20231;-62
2022/06/11 00:21:45;;;;;;;3.33;3.10;;;19.40;88.00;;;;;;6303410;28;20246;-62
2022/06/11 00:24:49;;;;;;;3.07;2.67;;;19.40;87.60;;;;;;6303120;28;20238;-62
2022/06/11 00:27:52;;;;;;;3.70;3.40;;;19.40;87.40;;;;;;6303633;28;20227;-62
2022/06/11 00:30:57;;;;;;;3.03;2.83;;;19.40;88.20;;;;;;6303436;28;20227;-62
2022/06/11 00:34:00;;;;;;;5.97;3.93;;;19.50;87.50;;;;;;6303307;28;20231;-62
2022/06/11 00:37:05;;;;;;;3.40;3.20;;;19.50;87.50;;;;;;6303029;28;20234;-62
2022/06/11 00:40:11;;;;;;;4.73;3.17;;;19.50;87.20;;;;;;6302811;28;20232;-62
2022/06/11 00:43:15;;;;;;;3.87;3.60;;;19.60;87.30;;;;;;6302742;28;20230;-62
2022/06/11 00:46:53;;;;;;;4.30;3.50;;;19.60;87.00;;;;;;6302763;28;20722;-62
2022/06/11 00:49:59;;;;;;;3.70;3.43;;;19.60;87.00;;;;;;6228733;28;20248;-63
2022/06/11 00:53:03;;;;;;;3.67;3.33;;;19.50;87.10;;;;;;6302784;28;20260;-62
2022/06/11 00:56:12;;;;;;;3.23;3.03;;;19.60;87.30;;;;;;6301628;28;20579;-62
2022/06/11 00:59:18;;;;;;;4.10;3.70;;;19.50;87.10;;;;;;6302923;28;20234;-62
2022/06/11 01:02:23;;;;;;;3.90;3.43;;;19.50;87.30;;;;;;6302361;28;20227;-61
2022/06/11 01:05:29;;;;;;;4.03;3.73;;;19.50;87.30;;;;;;6302537;28;20695;-62
2022/06/11 01:08:42;;;;;;;3.00;2.80;;;19.50;87.10;;;;;;6302047;28;20243;-61
2022/06/11 01:11:58;;;;;;;3.70;3.40;;;19.50;87.30;;;;;;6301793;28;20227;-61
2022/06/11 01:15:08;;;;;;;3.10;2.90;;;19.50;87.30;;;;;;6301475;28;20235;-61
2022/06/11 01:18:26;;;;;;;3.27;3.07;;;19.50;87.30;;;;;;6301719;28;20234;-61
2022/06/11 01:21:37;;;;;;;4.60;3.47;;;19.50;87.30;;;;;;6301395;28;20575;-61
2022/06/11 01:24:59;;;;;;;3.77;3.57;;;19.50;87.50;;;;;;6302353;28;20242;-61
2022/06/11 01:28:26;;;;;;;3.70;3.50;;;19.50;87.30;;;;;;6301870;28;20235;-61
2022/06/11 01:31:36;;;;;;;3.17;2.97;;;19.50;87.00;;;;;;6301507;28;20230;-61
2022/06/11 01:34:45;;;;;;;3.80;3.50;;;19.50;87.00;;;;;;6292305;28;20238;-61
2022/06/11 01:37:54;;;;;;;3.27;3.07;;;19.50;87.00;;;;;;6301488;28;20277;-61
2022/06/11 01:41:14;;;;;;;3.30;3.10;;;19.50;87.40;;;;;;6301223;28;20775;-61
2022/06/11 01:44:22;;;;;;;5.03;2.83;;;19.50;87.40;;;;;;6301456;28;20323;-61
2022/06/11 01:47:27;;;;;;;3.53;3.23;;;19.50;87.20;;;;;;6301391;28;20241;-61
2022/06/11 01:50:35;;;;;;;4.10;3.00;;;19.50;87.30;;;;;;6300863;28;20602;-62
2022/06/11 01:53:45;;;;;;;3.27;3.07;;;19.50;87.30;;;;;;6301313;28;20239;-61
2022/06/11 01:57:09;;;;;;;4.10;3.70;;;19.50;87.30;;;;;;6301039;28;20223;-61
2022/06/11 02:00:17;;;;;;;3.73;3.43;;;19.40;87.30;;;;;;6301124;28;20511;-61
2022/06/11 02:03:30;;;;;;;3.50;3.23;;;19.50;87.70;;;;;;6300971;28;20223;-61
2022/06/11 02:06:45;;;;;;;4.40;3.60;;;19.50;88.30;;;;;;6300130;28;20235;-61
2022/06/11 02:09:59;;;;;;;3.40;3.20;;;19.50;88.90;;;;;;6301271;28;20227;-62
2022/06/11 02:13:07;;;;;;;2.93;2.77;;;19.50;89.10;;;;;;6300703;28;20681;-61
2022/06/11 02:16:19;;;;;;;4.10;3.80;;;19.50;89.10;;;;;;6300637;28;20235;-61
2022/06/11 02:19:30;;;;;;;3.20;3.00;;;19.50;89.90;;;;;;6300510;28;20250;-61
2022/06/11 02:22:40;;;;;;;3.83;3.53;;;19.40;89.20;;;;;;6300246;28;20227;-62
2022/06/11 02:25:48;;;;;;;3.20;3.00;;;19.40;90.00;;;;;;6300383;28;20227;-62
2022/06/11 02:28:53;;;;;;;3.50;3.20;;;19.40;90.30;;;;;;6300139;28;20231;-62
2022/06/11 02:31:58;;;;;;;3.83;3.60;;;19.30;90.50;;;;;;6300463;28;20308;-62
2022/06/11 02:35:07;;;;;;;3.77;3.47;;;19.30;90.90;;;;;;6301157;28;20231;-63
2022/06/11 02:38:14;;;;;;;3.67;3.33;;;19.20;91.20;;;;;;6301142;28;20235;-62
2022/06/11 02:41:20;;;;;;;3.97;3.60;;;19.10;91.90;;;;;;6301352;28;20238;-62
2022/06/11 02:44:26;;;;;;;3.97;3.63;;;19.00;92.00;;;;;;6301341;28;20242;-63
2022/06/11 02:47:29;;;;;;;4.03;3.63;;;18.90;92.60;;;;;;6301090;28;20306;-63
2022/06/11 02:50:36;;;;;;;4.00;3.70;;;18.90;93.00;;;;;;6301239;28;20238;-63
2022/06/11 02:53:39;;;;;;;3.70;3.07;;;18.90;93.50;;;;;;6300401;28;20582;-62
2022/06/11 02:56:43;;;;;;;3.93;3.53;;;18.80;93.60;;;;;;6300540;28;20223;-62
2022/06/11 02:59:46;;;;;;;4.07;3.70;;;18.70;93.90;;;;;;6300502;28;20235;-62
2022/06/11 03:02:50;;;;;;;3.80;3.60;;;18.70;94.20;;;;;;6300083;28;20228;-62
2022/06/11 03:05:54;;;;;;;4.33;3.50;;;18.60;94.50;;;;;;6300370;28;20564;-62
2022/06/11 03:08:59;;;;;;;3.67;3.37;;;18.50;95.10;;;;;;6300275;28;20238;-62
2022/06/11 03:12:04;;;;;;;4.10;3.80;;;18.50;94.90;;;;;;6299807;28;20227;-63
2022/06/11 03:15:08;;;;;;;4.10;3.80;;;18.60;95.00;;;;;;6300300;28;20227;-63
2022/06/11 03:18:11;;;;;;;4.37;3.97;;;18.50;95.00;;;;;;6299849;28;20230;-62
2022/06/11 03:21:15;;;;;;;4.20;3.57;;;18.50;95.10;;;;;;6300384;28;20210;-62
2022/06/11 03:24:19;;;;;;;4.23;3.93;;;18.40;95.20;;;;;;6300349;28;20457;-62
2022/06/11 03:27:22;;;;;;;4.27;3.90;;;18.40;95.40;;;;;;6300423;28;20442;-62
2022/06/11 03:30:26;;;;;;;4.13;3.83;;;18.40;95.40;;;;;;6300360;28;20437;-62
2022/06/11 03:33:30;;;;;;;3.90;3.50;;;18.40;95.50;;;;;;6300272;28;20377;-62
2022/06/11 03:36:34;;;;;;;4.00;3.70;;;18.40;95.60;;;;;;6300706;28;20230;-62
2022/06/11 03:39:37;;;;;;;4.90;3.40;;;18.40;95.70;;;;;;6300264;28;20480;-62
2022/06/11 03:42:41;;;;;;;4.57;4.17;;;18.40;95.80;;;;;;6290149;28;20482;-62
2022/06/11 03:45:45;;;;;;;4.30;4.00;;;18.40;95.80;;;;;;6299880;28;20473;-62
2022/06/11 03:48:48;;;;;;;4.50;3.83;;;18.40;95.70;;;;;;6299825;28;20480;-62
2022/06/11 03:51:54;;;;;;;3.67;3.37;;;18.40;95.70;;;;;;6299862;28;20545;-62
2022/06/11 03:54:57;;;;;;;6.70;4.20;;;18.50;95.50;;;;;;6299895;28;20480;-62
2022/06/11 03:58:01;;;;;;;4.30;4.00;;;18.60;95.70;;;;;;6299678;28;20465;-62
2022/06/11 04:01:18;;;;;;;4.50;4.13;;;18.60;95.00;;;;;;6299653;28;20231;-62
2022/06/11 04:04:22;;;;;;;4.40;4.00;;;18.60;94.50;;;;;;6300060;28;20474;-62
2022/06/11 04:07:26;;;;;;;4.13;3.83;;;18.70;94.70;;;;;;6300362;28;20767;-62
2022/06/11 04:10:30;;;;;;;4.90;4.00;;;18.80;95.20;;;;;;6300178;28;20227;-62
2022/06/11 04:13:35;;;;;;;3.77;3.47;;;18.80;94.60;;;;;;6300191;28;20476;-62
2022/06/11 04:16:42;;;;;;;4.53;4.23;;;19.00;94.60;;;;;;6299577;28;20688;-62
2022/06/11 04:19:49;;;;;;;3.87;3.57;;;19.10;94.70;;;;;;6299591;28;20237;-62
2022/06/11 04:22:54;;;;;;;4.60;3.63;;;19.30;94.10;;;;;;6300064;28;20227;-62
2022/06/11 04:25:59;;;;;;;7.13;3.67;;;19.40;93.50;;;;;;6299861;28;20231;-62
2022/06/11 04:29:05;;;;;;;4.40;3.37;;;19.60;92.90;;;;;;6299807;28;20703;-62
2022/06/11 04:32:10;;;;;;;3.97;3.27;;;19.70;92.60;;;;;;6304079;28;20663;-62
2022/06/11 04:35:14;;;;;;;3.63;3.10;;;19.90;92.40;;;;;;6304519;28;20227;-62
2022/06/11 04:38:18;;;;;;;3.57;3.27;;;20.00;92.30;;;;;;6304771;28;20223;-62
2022/06/11 04:41:23;;;;;;;3.50;3.20;;;20.20;92.10;;;;;;6304624;28;20242;-62
2022/06/11 04:44:27;;;;;;;3.80;3.50;;;20.50;91.40;;;;;;6304270;28;20242;-62
2022/06/11 04:47:32;;;;;;;3.93;3.37;;;20.60;91.10;;;;;;6294640;28;20672;-62
2022/06/11 04:50:36;;;;;;;3.90;3.23;;;20.80;90.50;;;;;;6304462;28;20254;-62
2022/06/11 04:53:41;;;;;;;4.60;3.73;;;20.90;90.00;;;;;;6304233;28;20250;-63
2022/06/11 04:56:44;;;;;;;3.63;3.43;;;21.00;89.70;;;;;;6304132;28;20685;-62
2022/06/11 04:59:48;;;;;;;4.00;3.70;;;21.10;89.40;;;;;;6304312;28;20261;-62
2022/06/11 05:02:51;;;;;;;3.50;3.20;;;21.30;89.20;;;;;;6304007;28;20536;-62
2022/06/11 05:05:54;;;;;;;3.73;3.47;;;21.40;86.70;;;;;;6304033;28;20242;-62
2022/06/11 05:08:59;;;;;;;4.20;3.90;;;21.40;86.00;;;;;;6303787;28;20226;-62
2022/06/11 05:12:03;;;;;;;4.43;3.27;;;21.50;86.10;;;;;;6303104;28;20256;-62
2022/06/11 05:15:07;;;;;;;4.40;4.00;;;21.50;85.00;;;;;;6303208;28;20237;-62
2022/06/11 05:18:11;;;;;;;3.40;3.20;;;21.50;84.40;;;;;;6302215;28;20241;-62
2022/06/11 05:21:15;;;;;;;3.53;3.23;;;21.60;84.20;;;;;;6302078;28;20665;-62
2022/06/11 05:24:20;;;;;;;3.90;3.60;;;21.70;83.80;;;;;;6302036;28;20231;-62
2022/06/11 05:27:25;;;;;;;4.13;3.70;;;21.70;83.50;;;;;;6302749;28;20203;-62
2022/06/11 05:30:31;;;;;;;3.40;3.13;;;21.90;83.70;;;;;;6303377;28;20257;-63
2022/06/11 05:33:34;;;;;;;3.60;3.37;;;21.90;83.20;;;;;;6304793;28;20559;-62
2022/06/11 05:36:37;;;;;;;4.50;3.53;;;22.00;82.60;;;;;;6304150;28;20239;-62
2022/06/11 05:39:43;;;;;;;3.13;2.93;;;22.00;83.00;;;;;;6304741;28;20238;-62
2022/06/11 05:42:48;;;;;;;3.17;2.97;;;22.10;82.20;;;;;;6302696;28;20249;-62
2022/06/11 05:45:54;;;;;;;5.60;3.67;;;22.30;82.30;;;;;;6303624;28;20231;-62
2022/06/11 05:49:00;;;;;;;5.20;3.53;;;22.40;80.90;;;;;;6297926;28;20656;-63
2022/06/11 05:52:08;;;;;;;3.43;3.10;;;22.50;80.70;;;;;;6302509;28;20676;-62
2022/06/11 05:55:15;;;;;;;3.87;3.40;;;22.60;81.10;;;;;;6302483;28;20227;-62
2022/06/11 05:58:22;;;;;;;3.13;2.93;;;22.60;80.40;;;;;;6302258;28;20672;-62
2022/06/11 06:01:30;;;;;;;3.70;3.40;;;22.70;78.90;;;;;;6302300;28;20238;-63
2022/06/11 06:04:33;;;;;;;4.00;3.53;;;22.80;78.40;;;;;;6301985;28;20238;-62
2022/06/11 06:07:37;;;;;;;3.47;3.17;;;23.00;77.70;;;;;;6302599;28;20354;-62
2022/06/11 06:10:41;;;;;;;3.53;3.33;;;23.40;76.70;;;;;;6302218;28;20338;-62
2022/06/11 06:13:47;;;;;;;3.80;3.50;;;24.00;75.90;;;;;;6302351;28;20227;-61
2022/06/11 06:16:50;;;;;;;3.30;3.10;;;24.60;75.20;;;;;;6302855;28;20765;-62
2022/06/11 06:19:53;;;;;;;4.00;2.90;;;25.20;71.60;;;;;;6302536;28;20520;-62
2022/06/11 06:22:57;;;;;;;3.10;2.90;;;25.80;69.40;;;;;;6301840;28;20711;-62
2022/06/11 06:26:01;;;;;;;3.23;3.03;;;26.10;67.90;;;;;;6301969;28;20237;-62
2022/06/11 06:29:05;;;;;;;4.77;3.20;;;26.40;66.40;;;;;;6301666;28;20569;-62
2022/06/11 06:32:09;;;;;;;3.67;3.03;;;27.10;64.20;;;;;;6301800;28;20699;-61
2022/06/11 06:35:12;;;;;;;2.77;2.60;;;27.50;62.10;;;;;;6301051;28;20230;-63
2022/06/11 06:38:16;;;;;;;3.23;2.90;;;28.00;61.90;;;;;;6301192;28;20242;-62
2022/06/11 06:41:21;;;;;;;3.30;3.00;;;28.60;59.40;;;;;;6301118;28;20226;-62
2022/06/11 06:44:25;;;;;;;3.40;2.67;;;28.90;57.80;;;;;;6300628;28;20245;-62
2022/06/11 06:47:28;;;;;;;2.40;2.20;;;29.10;57.30;;;;;;6301995;28;20231;-63
2022/06/11 06:50:31;;;;;;;3.10;2.90;;;29.40;54.90;;;;;;6301934;28;20233;-63
2022/06/11 06:53:36;;;;;;;2.50;2.30;;;29.90;53.50;;;;;;6295458;28;20238;-62
2022/06/11 06:56:40;;;;;;;4.90;2.37;;;30.30;52.30;;;;;;6300477;28;20664;-63
2022/06/11 06:59:44;;;;;;;2.07;1.80;;;30.30;50.70;;;;;;6301193;28;20226;-63
2022/06/11 07:02:53;;;;;;;2.37;2.17;;;30.50;49.40;;;;;;6300627;28;20383;-63
2022/06/11 07:05:57;;;;;;;2.40;2.20;;;31.20;49.00;;;;;;6300059;28;20237;-63
2022/06/11 07:09:00;;;;;;;2.33;2.20;;;31.90;47.30;;;;;;6299879;28;20226;-63
2022/06/11 07:12:04;;;;;;;3.47;2.13;;;32.20;46.20;;;;;;6299896;28;20234;-63
2022/06/11 07:15:08;;;;;;;3.22;2.10;;;32.50;45.10;;;;;;6300597;28;20683;-63
2022/06/11 07:18:17;;;;;;;2.45;1.98;;;32.90;44.00;;;;;;6300551;28;20797;-63
2022/06/11 07:21:23;;;;;;;2.58;2.38;;;32.90;43.90;;;;;;6300212;28;20191;-63
2022/06/11 07:24:29;;;;;;;3.53;2.28;;;33.50;42.10;;;;;;6299597;28;20542;-62
2022/06/11 07:27:37;;;;;;;2.47;2.28;;;33.90;41.80;;;;;;6300166;28;20222;-63
2022/06/11 07:30:41;;;;;;;2.00;1.90;;;33.90;40.90;;;;;;6300453;28;20234;-63
2022/06/11 07:33:45;;;;;;;2.45;2.10;;;34.20;40.80;;;;;;6299403;28;20230;-64
2022/06/11 07:36:48;;;;;;;2.08;1.65;;;34.90;39.30;;;;;;6296871;28;20660;-64
2022/06/11 07:39:51;;;;;;;2.33;1.70;;;35.10;39.00;;;;;;6297930;28;20263;-63
2022/06/11 07:42:56;;;;;;;2.40;1.90;;;35.00;39.00;;;;;;6299645;28;20317;-63
2022/06/11 07:45:59;;;;;;;2.28;2.08;;;34.80;38.50;;;;;;6299405;28;20234;-64
2022/06/11 07:49:02;;;;;;;2.22;1.92;;;33.80;38.20;;;;;;6300207;28;20226;-64
2022/06/11 07:52:06;;;;;;;2.30;2.10;;;33.20;38.60;;;;;;6300054;28;20226;-63
2022/06/11 07:55:11;;;;;;;2.38;2.10;;;32.80;39.00;;;;;;6299618;28;20236;-63
2022/06/11 07:58:17;;;;;;;3.47;2.20;;;32.10;39.50;;;;;;6300006;28;20241;-63
2022/06/11 08:01:20;;;;;;;2.22;2.03;;;31.50;41.60;;;;;;6299937;28;20249;-63
2022/06/11 08:04:24;;;;;;;2.22;2.13;;;30.80;41.30;;;;;;6302169;28;20310;-63
2022/06/11 08:07:29;;;;;;;2.42;2.28;;;30.30;42.20;;;;;;6305388;28;20234;-63
2022/06/11 08:10:32;;;;;;;1.87;1.77;;;29.80;43.70;;;;;;6305104;28;20230;-63
2022/06/11 08:13:37;;;;;;;2.30;2.10;;;29.60;44.70;;;;;;6304616;28;20237;-63
2022/06/11 08:16:41;;;;;;;1.73;1.63;;;29.20;44.80;;;;;;6304365;28;20226;-63
2022/06/11 08:19:44;;;;;;;1.93;1.83;;;29.20;45.20;;;;;;6304849;28;20226;-63
2022/06/11 08:22:47;;;;;;;2.30;2.10;;;29.10;44.60;;;;;;6305297;28;20249;-63
2022/06/11 08:25:50;;;;;;;2.90;2.10;;;28.90;44.90;;;;;;6304519;28;20241;-63
2022/06/11 08:28:55;;;;;;;2.77;1.77;;;28.70;44.70;;;;;;6304707;28;20245;-63
2022/06/11 08:31:58;;;;;;;2.27;2.07;;;28.40;45.80;;;;;;6304128;28;20230;-63
2022/06/11 08:35:01;;;;;;;3.20;2.40;;;28.30;46.80;;;;;;6304732;28;20241;-63
2022/06/11 08:38:05;;;;;;;2.30;2.10;;;28.10;47.60;;;;;;6303861;28;20325;-63
2022/06/11 08:41:16;;;;;;;2.40;2.20;;;28.10;47.20;;;;;;6301856;28;20222;-63
2022/06/11 08:44:24;;;;;;;2.37;2.17;;;28.20;47.10;;;;;;6298957;28;20562;-63
2022/06/11 08:47:35;;;;;;;5.87;2.60;;;28.40;46.10;;;;;;6299776;28;20226;-63
2022/06/11 08:50:45;;;;;;;2.80;2.60;;;28.60;47.30;;;;;;6301032;28;20226;-63
2022/06/11 08:53:51;;;;;;;3.30;2.27;;;28.60;46.60;;;;;;6300080;28;20317;-63
2022/06/11 08:57:00;;;;;;;3.07;2.30;;;28.40;46.40;;;;;;6301846;28;20219;-63
2022/06/11 09:00:10;;;;;;;45.00;40.80;;;28.10;46.80;;;;;;6293627;28;20245;-63
2022/06/11 09:03:19;;;;;;;3.60;3.30;;;27.90;47.10;;;;;;6301378;28;20661;-63
2022/06/11 09:06:54;;;;;;;2.60;2.13;;;27.70;48.20;;;;;;6302777;28;20226;-62
2022/06/11 09:10:09;;;;;;;2.97;2.50;;;27.70;49.40;;;;;;6302518;28;20238;-62
2022/06/11 09:13:35;;;;;;;4.30;2.53;;;27.60;48.70;;;;;;6302036;28;20234;-62
2022/06/11 09:16:55;;;;;;;3.07;2.77;;;27.60;49.00;;;;;;6299725;28;20230;-62
2022/06/11 09:20:09;;;;;;;2.90;2.70;;;27.50;48.70;;;;;;6301796;28;20222;-62
2022/06/11 09:23:32;;;;;;;9.93;9.13;;;27.50;48.90;;;;;;6301577;28;20245;-62
2022/06/11 09:26:44;;;;;;;4.73;4.33;;;27.40;49.00;;;;;;6301506;28;20230;-61
2022/06/11 09:29:55;;;;;;;3.63;3.43;;;27.30;48.60;;;;;;6301418;28;20246;-61
2022/06/11 09:33:02;;;;;;;4.57;2.80;;;27.30;48.80;;;;;;6301500;28;20241;-61
2022/06/11 09:36:09;;;;;;;3.43;3.13;;;27.80;48.50;;;;;;6301595;28;20222;-61
2022/06/11 09:39:27;;;;;;;25.00;21.43;;;28.00;47.50;;;;;;6301272;28;20215;-61
2022/06/11 09:42:49;;;;;;;6.33;5.77;;;27.90;47.20;;;;;;6276761;28;20232;-61
2022/06/11 09:46:01;;;;;;;10.67;9.80;;;27.70;47.50;;;;;;6277499;28;20253;-61
2022/06/11 09:49:16;;;;;;;11.87;10.97;;;27.70;47.70;;;;;;6301016;28;20238;-61
2022/06/11 09:52:25;;;;;;;6.83;6.33;;;27.80;48.10;;;;;;6301028;28;20241;-61
2022/06/11 09:55:36;;;;;;;2.80;2.60;;;28.30;47.80;;;;;;6300883;28;20230;-64
2022/06/11 09:58:47;;;;;;;4.13;3.77;;;28.50;46.60;;;;;;6298587;28;20226;-63
2022/06/11 10:01:55;;;;;;;7.50;6.97;;;28.50;46.70;;;;;;6294713;28;20234;-62
2022/06/11 10:05:04;;;;;;;4.47;4.10;;;28.40;46.50;;;;;;6300931;28;20323;-64
2022/06/11 10:08:16;;;;;;;4.13;3.83;;;28.50;45.70;;;;;;6299499;28;20237;-64
2022/06/11 10:11:25;;;;;;;4.47;4.00;;;28.50;45.70;;;;;;6300597;28;20223;-64
2022/06/11 10:14:37;;;;;;;4.87;4.47;;;28.30;46.10;;;;;;6299894;28;20218;-63
2022/06/11 10:17:50;;;;;;;7.13;6.43;;;28.10;46.00;;;;;;6300359;28;20232;-62
2022/06/11 10:20:58;;;;;;;7.50;6.93;;;27.90;46.50;;;;;;6297278;28;20360;-63
2022/06/11 10:24:06;;;;;;;42.10;38.40;;;28.00;46.30;;;;;;6293650;28;20230;-64
2022/06/11 10:27:15;;;;;;;6.37;5.87;;;28.10;47.60;;;;;;6297561;28;20226;-64
2022/06/11 10:30:34;;;;;;;11.23;10.23;;;28.30;46.50;;;;;;6299307;28;20227;-64
2022/06/11 10:33:46;;;;;;;9.20;8.40;;;28.30;46.50;;;;;;6300146;28;20234;-65
2022/06/11 10:36:56;;;;;;;2.70;2.50;;;28.20;46.80;;;;;;6296849;28;20234;-63
2022/06/11 10:40:08;;;;;;;9.70;8.70;;;28.40;45.20;;;;;;6298084;28;20240;-63
2022/06/11 10:43:17;;;;;;;5.20;4.80;;;28.60;46.40;;;;;;6299691;28;20237;-63
2022/06/11 10:46:21;;;;;;;4.30;3.90;;;28.60;45.20;;;;;;6299544;28;20245;-62
2022/06/11 10:49:25;;;;;;;6.87;4.20;;;28.40;45.20;;;;;;6299882;28;20372;-62
2022/06/11 10:52:38;;;;;;;4.47;4.07;;;28.20;45.80;;;;;;6299220;28;20252;-63
2022/06/11 10:55:45;;;;;;;7.10;6.40;;;28.10;46.10;;;;;;6299791;28;20229;-64
2022/06/11 10:58:56;;;;;;;5.20;4.70;;;28.20;46.70;;;;;;6299723;28;20234;-63
2022/06/11 11:02:12;;;;;;;4.37;4.00;;;28.30;46.20;;;;;;6300054;28;20231;-61
2022/06/11 11:05:18;;;;;;;3.53;3.33;;;28.40;46.00;;;;;;6299984;28;20346;-63
2022/06/11 11:08:24;;;;;;;3.73;3.53;;;28.50;44.90;;;;;;6299753;28;20222;-62
2022/06/11 11:11:32;;;;;;;4.10;3.80;;;28.60;45.90;;;;;;6284741;28;20242;-62
2022/06/11 11:14:40;;;;;;;3.30;3.10;;;28.70;45.30;;;;;;6287745;28;20680;-63
2022/06/11 11:17:50;;;;;;;3.10;2.90;;;28.70;45.60;;;;;;6285531;28;20683;-62
2022/06/11 11:20:56;;;;;;;3.60;3.20;;;28.50;45.80;;;;;;6280054;28;20226;-62
2022/06/11 11:24:06;;;;;;;3.17;2.97;;;28.50;46.00;;;;;;6274493;28;20238;-62
2022/06/11 11:27:19;;;;;;;2.67;2.50;;;28.40;46.60;;;;;;6274416;28;20235;-62
2022/06/11 11:30:32;;;;;;;3.80;3.50;;;28.40;47.00;;;;;;6274391;28;20214;-63
2022/06/11 11:33:38;;;;;;;3.60;3.40;;;28.40;47.20;;;;;;6274415;28;20258;-62
2022/06/11 11:36:41;;;;;;;4.23;2.73;;;28.60;47.40;;;;;;6278549;28;20222;-62
2022/06/11 11:39:51;;;;;;;2.97;2.77;;;28.80;45.70;;;;;;6301943;28;20222;-62
2022/06/11 11:42:58;;;;;;;2.87;2.67;;;29.10;44.40;;;;;;6303950;28;20236;-62
2022/06/11 11:46:03;;;;;;;3.00;2.80;;;29.40;44.50;;;;;;6325685;28;20241;-62
2022/06/11 11:49:08;;;;;;;3.97;3.67;;;29.50;44.70;;;;;;6329094;28;20233;-62
2022/06/11 11:52:15;;;;;;;3.13;2.83;;;29.50;44.90;;;;;;6329150;28;20225;-62
2022/06/11 11:55:26;;;;;;;4.50;3.60;;;29.20;44.40;;;;;;6329282;28;20222;-62
2022/06/11 11:58:34;;;;;;;2.93;2.73;;;29.00;44.10;;;;;;6329159;28;20226;-62
2022/06/11 12:01:37;;;;;;;4.00;3.20;;;28.70;44.30;;;;;;6329058;28;20232;-62
2022/06/11 12:04:51;;;;;;;3.03;2.83;;;28.60;44.10;;;;;;6323317;28;20229;-61
2022/06/11 12:07:56;;;;;;;3.60;3.30;;;28.60;45.20;;;;;;6316437;28;20351;-61
2022/06/11 12:11:02;;;;;;;3.23;2.93;;;28.60;45.30;;;;;;6320770;28;20794;-61
2022/06/11 12:14:13;;;;;;;2.80;2.60;;;28.50;46.10;;;;;;6327173;28;20230;-62
2022/06/11 12:17:23;;;;;;;2.50;2.40;;;28.50;46.60;;;;;;6327907;28;20230;-61
2022/06/11 12:20:41;;;;;;;3.37;3.07;;;28.40;45.60;;;;;;6327382;28;20664;-61
2022/06/11 12:23:49;;;;;;;3.33;3.00;;;28.30;45.80;;;;;;6327767;28;20675;-61
2022/06/11 12:26:57;;;;;;;3.30;3.00;;;28.30;46.30;;;;;;6327676;28;20237;-61
2022/06/11 12:30:05;;;;;;;3.40;3.10;;;28.20;47.00;;;;;;6328422;28;20226;-61
2022/06/11 12:33:12;;;;;;;3.30;3.10;;;28.10;47.20;;;;;;6327994;28;20229;-61
2022/06/11 12:36:29;;;;;;;3.60;3.30;;;27.80;47.70;;;;;;6303088;28;20227;-61
2022/06/11 12:39:43;;;;;;;3.67;2.87;;;27.70;48.40;;;;;;6328215;28;20222;-61
2022/06/11 12:43:03;;;;;;;4.07;3.67;;;27.70;47.70;;;;;;6322994;28;20241;-62
2022/06/11 12:46:14;;;;;;;3.33;3.10;;;27.80;48.50;;;;;;6302945;28;20222;-62
2022/06/11 12:49:25;;;;;;;7.60;3.40;;;27.90;48.40;;;;;;6303167;28;20223;-61
2022/06/11 12:52:33;;;;;;;3.57;3.33;;;28.10;47.60;;;;;;6301499;28;20238;-62
2022/06/11 12:56:17;;;;;;;3.43;3.13;;;28.10;47.30;;;;;;6302440;28;20245;-62
2022/06/11 12:59:39;;;;;;;3.60;3.37;;;28.30;47.30;;;;;;6300395;28;20234;-62
2022/06/11 13:02:55;;;;;;;3.50;3.30;;;28.40;47.20;;;;;;6302389;28;20230;-60
2022/06/11 13:06:15;;;;;;;3.90;3.60;;;28.70;47.50;;;;;;6302343;28;20227;-60
2022/06/11 13:09:34;;;;;;;3.63;3.33;;;29.00;47.00;;;;;;6302296;28;20234;-60
2022/06/11 13:12:53;;;;;;;3.80;3.57;;;29.20;45.80;;;;;;6301609;28;20245;-60
2022/06/11 13:16:06;;;;;;;3.20;3.00;;;29.20;46.00;;;;;;6302567;28;20233;-60
2022/06/11 13:19:21;;;;;;;4.43;3.73;;;29.20;44.80;;;;;;6301936;28;20580;-60
2022/06/11 13:22:35;;;;;;;3.30;3.10;;;29.10;45.10;;;;;;6302313;28;20254;-60
2022/06/11 13:25:44;;;;;;;5.70;4.00;;;29.10;44.40;;;;;;6302367;28;20226;-61
2022/06/11 13:29:16;;;;;;;4.07;3.77;;;29.00;45.20;;;;;;6301720;28;20674;-61
2022/06/11 13:32:29;;;;;;;3.27;3.00;;;28.80;45.50;;;;;;6301403;28;20241;-61
2022/06/11 13:35:44;;;;;;;3.80;3.60;;;28.70;45.80;;;;;;6301577;28;20237;-61
2022/06/11 13:39:05;;;;;;;4.20;3.90;;;28.70;46.80;;;;;;6301496;28;20351;-61
2022/06/11 13:42:21;;;;;;;4.23;3.83;;;28.60;46.70;;;;;;6301348;28;20261;-61
2022/06/11 13:45:35;;;;;;;5.53;3.70;;;28.50;46.60;;;;;;6303434;28;20211;-61
2022/06/11 13:48:54;;;;;;;4.47;4.07;;;28.50;46.80;;;;;;6326512;28;20242;-61
2022/06/11 13:52:06;;;;;;;4.20;3.90;;;28.50;47.00;;;;;;6326673;28;20229;-61
2022/06/11 13:55:14;;;;;;;3.93;3.73;;;28.60;46.70;;;;;;6326706;28;20655;-61
2022/06/11 13:58:33;;;;;;;3.80;3.60;;;28.40;45.70;;;;;;6326474;28;20250;-61
2022/06/11 14:01:56;;;;;;;3.97;3.67;;;28.30;45.90;;;;;;6326479;28;20229;-61
2022/06/11 14:05:03;;;;;;;3.93;3.73;;;28.40;46.00;;;;;;6326391;28;20605;-61
2022/06/11 14:08:08;;;;;;;4.03;3.73;;;28.40;46.30;;;;;;6326017;28;20233;-62
2022/06/11 14:11:19;;;;;;;3.90;3.60;;;28.60;46.70;;;;;;6326157;28;20232;-62
2022/06/11 14:14:46;;;;;;;4.13;3.73;;;28.80;46.10;;;;;;6321349;28;20559;-61
2022/06/11 14:17:51;;;;;;;4.63;3.87;;;28.70;45.10;;;;;;6284646;28;20675;-61
2022/06/11 14:20:58;;;;;;;3.63;3.43;;;28.60;45.10;;;;;;6323265;28;20340;-61
2022/06/11 14:24:01;;;;;;;3.63;3.33;;;28.60;45.20;;;;;;6326163;28;20233;-61
2022/06/11 14:27:28;;;;;;;3.53;3.33;;;28.60;44.10;;;;;;6301623;28;20246;-61
2022/06/11 14:30:31;;;;;;;3.77;3.30;;;28.40;44.00;;;;;;6300644;28;20233;-62
2022/06/11 14:33:37;;;;;;;3.90;3.60;;;28.20;43.80;;;;;;6300390;28;20234;-61
2022/06/11 14:36:43;;;;;;;3.73;3.40;;;28.10;44.50;;;;;;6300337;28;20233;-62
2022/06/11 14:39:47;;;;;;;3.33;3.13;;;28.00;45.20;;;;;;6300827;28;20230;-62
2022/06/11 14:43:01;;;;;;;3.67;3.37;;;27.90;44.40;;;;;;6300291;28;20238;-63
2022/06/11 14:46:05;;;;;;;3.20;3.00;;;27.90;44.80;;;;;;6300291;28;20583;-62
2022/06/11 14:49:13;;;;;;;3.13;2.93;;;27.80;45.00;;;;;;6300067;28;20230;-62
2022/06/11 14:52:51;;;;;;;3.00;2.80;;;27.70;45.10;;;;;;6299721;28;20245;-62
2022/06/11 14:55:59;;;;;;;3.27;3.00;;;27.50;45.40;;;;;;6300035;28;20226;-62
2022/06/11 14:59:41;;;;;;;3.90;3.60;;;27.40;46.80;;;;;;6299573;28;20235;-63
2022/06/11 15:03:26;;;;;;;4.20;3.90;;;27.10;47.90;;;;;;6289783;28;20342;-62
2022/06/11 15:06:48;;;;;;;3.40;3.10;;;27.00;50.00;;;;;;6284605;28;20664;-62
2022/06/11 15:10:04;;;;;;;3.70;3.50;;;27.00;48.70;;;;;;6313942;28;20248;-62
2022/06/11 15:13:41;;;;;;;4.57;3.10;;;26.80;48.20;;;;;;6298575;28;20226;-62
2022/06/11 15:16:45;;;;;;;3.67;3.47;;;26.80;48.70;;;;;;6279374;28;20227;-64
2022/06/11 15:19:53;;;;;;;3.63;3.33;;;26.90;48.10;;;;;;6299314;28;20223;-63
2022/06/11 15:22:57;;;;;;;3.53;3.23;;;27.00;47.60;;;;;;6297332;28;20226;-63
2022/06/11 15:26:04;;;;;;;3.30;3.10;;;27.00;48.10;;;;;;6298806;28;20232;-63
2022/06/11 15:29:10;;;;;;;3.53;3.23;;;27.10;48.10;;;;;;6299168;28;20236;-63
2022/06/11 15:32:18;;;;;;;3.17;2.97;;;27.20;48.30;;;;;;6299177;28;20261;-62
2022/06/11 15:35:41;;;;;;;3.80;3.50;;;27.30;48.40;;;;;;6298695;28;20553;-63
2022/06/11 15:38:50;;;;;;;3.57;3.27;;;27.40;47.90;;;;;;6298406;28;20556;-64
2022/06/11 15:42:00;;;;;;;4.17;3.87;;;27.30;48.20;;;;;;6298630;28;20248;-63
2022/06/11 15:45:08;;;;;;;3.70;3.40;;;27.30;47.50;;;;;;6299016;28;20685;-63
2022/06/11 15:48:18;;;;;;;3.70;3.50;;;27.30;48.10;;;;;;6298777;28;20233;-63
2022/06/11 15:51:23;;;;;;;4.70;4.00;;;27.40;48.30;;;;;;6298611;28;20613;-63
2022/06/11 15:57:51;;;;;;;4.20;3.70;;;27.40;47.70;;;;;;6297755;28;20676;-63
2022/06/11 16:00:57;;;;;;;4.63;3.20;;;27.40;48.20;;;;;;6298824;28;20226;-61
2022/06/11 16:04:01;;;;;;;3.97;3.67;;;27.40;48.00;;;;;;6298253;28;20248;-63
2022/06/11 16:07:07;;;;;;;3.90;3.60;;;27.50;48.00;;;;;;6298317;28;20241;-62
2022/06/11 16:10:15;;;;;;;3.87;3.63;;;27.50;47.90;;;;;;6298675;28;20234;-62
2022/06/11 16:13:24;;;;;;;4.33;3.63;;;27.50;48.60;;;;;;6298467;28;20227;-63
2022/06/11 16:16:30;;;;;;;3.50;3.30;;;27.50;48.30;;;;;;6298904;28;20245;-63
2022/06/11 16:19:35;;;;;;;4.03;3.47;;;27.50;47.40;;;;;;6298268;28;20570;-61
2022/06/11 16:22:40;;;;;;;3.30;3.10;;;27.40;47.80;;;;;;6298008;28;20242;-62